createdAt,value
2022-09-02T00:02:26.194Z,8.5
2022-09-02T00:07:32.797Z,8.7
2022-09-02T00:12:39.434Z,9.3
2022-09-02T00:17:46.049Z,9.8
2022-09-02T00:22:52.675Z,10.1
2022-09-02T00:27:59.327Z,10.2
2022-09-02T00:33:05.978Z,10.2
2022-09-02T00:38:12.590Z,9.8
2022-09-02T00:43:19.197Z,9.7
2022-09-02T00:48:25.822Z,9.6
2022-09-02T00:53:32.718Z,9
2022-09-02T00:58:39.562Z,9.1
2022-09-02T01:03:46.475Z,9.3
2022-09-02T01:08:53.315Z,9
2022-09-02T01:14:00.132Z,8.5
2022-09-02T01:19:07.015Z,8.5
2022-09-02T01:24:13.867Z,8.5
2022-09-02T01:29:20.725Z,8.5
2022-09-02T01:34:27.606Z,8.4
2022-09-02T01:39:34.436Z,8.4
2022-09-02T01:44:41.315Z,8.4
2022-09-02T01:49:48.162Z,8.4
2022-09-02T01:54:55.048Z,8.4
2022-09-02T02:00:02.531Z,8.3
2022-09-02T02:05:08.664Z,8.5
2022-09-02T02:10:15.150Z,8.4
2022-09-02T02:15:21.639Z,8.3
2022-09-02T02:20:28.136Z,8.5
2022-09-02T02:25:34.635Z,8.6
2022-09-02T02:30:41.129Z,8.2
2022-09-02T02:35:47.566Z,8.2
2022-09-02T02:40:54.083Z,8.1
2022-09-02T02:46:00.592Z,7.8
2022-09-02T02:51:07.042Z,8
2022-09-02T02:56:13.519Z,8.4
2022-09-02T03:01:19.999Z,7.9
2022-09-02T03:06:26.471Z,8
2022-09-02T03:11:32.981Z,7.9
2022-09-02T03:16:39.457Z,7.9
2022-09-02T03:21:45.971Z,7.9
2022-09-02T03:26:52.491Z,8.1
2022-09-02T03:31:58.994Z,8
2022-09-02T03:37:05.480Z,8.2
2022-09-02T03:42:11.912Z,8.2
2022-09-02T03:47:18.369Z,8.1
2022-09-02T03:52:24.791Z,8.3
2022-09-02T03:57:31.241Z,8
2022-09-02T04:02:37.684Z,8
2022-09-02T04:07:44.122Z,7.8
2022-09-02T04:12:50.684Z,7.7
2022-09-02T04:17:57.283Z,7.9
2022-09-02T04:23:03.854Z,7.8
2022-09-02T04:28:10.472Z,7.9
2022-09-02T04:33:17.048Z,8.2
2022-09-02T04:38:23.613Z,8.4
2022-09-02T04:43:30.230Z,8.4
2022-09-02T04:48:36.788Z,8.4
2022-09-02T04:53:43.360Z,8.5
2022-09-02T04:58:49.922Z,8.3
2022-09-02T05:03:56.533Z,8
2022-09-02T05:09:03.107Z,8.1
2022-09-02T05:14:09.688Z,8.7
2022-09-02T05:19:16.497Z,9.7
2022-09-02T05:24:23.314Z,10.4
2022-09-02T05:29:30.130Z,11.3
2022-09-02T05:34:36.968Z,11.5
2022-09-02T05:39:43.809Z,11.6
2022-09-02T05:44:50.574Z,12.2
2022-09-02T05:49:57.388Z,12.5
2022-09-02T05:55:04.181Z,12.8
2022-09-02T06:00:10.973Z,13
2022-09-02T06:05:17.822Z,13.1
2022-09-02T06:10:24.657Z,13.7
2022-09-02T06:15:31.479Z,13.9
2022-09-02T06:20:38.327Z,14.1
2022-09-02T06:25:45.795Z,14.3
2022-09-02T06:30:51.797Z,16
2022-09-02T06:35:58.211Z,16.3
2022-09-02T06:41:04.676Z,15.5
2022-09-02T06:46:11.099Z,16.8
2022-09-02T06:51:17.550Z,17
2022-09-02T06:56:24.026Z,17.6
2022-09-02T07:01:30.558Z,19.5
2022-09-02T07:06:36.917Z,19.7
2022-09-02T07:11:43.360Z,20.9
2022-09-02T07:16:49.835Z,21.1
2022-09-02T07:21:56.294Z,21.6
2022-09-02T07:27:02.702Z,21.4
2022-09-02T07:32:09.162Z,22.3
2022-09-02T07:37:15.605Z,22
2022-09-02T07:42:22.042Z,20.7
2022-09-02T07:47:28.442Z,20.3
2022-09-02T07:52:34.891Z,22.1
2022-09-02T07:57:41.352Z,21.7
2022-09-02T08:02:47.805Z,21.2
2022-09-02T08:07:54.206Z,22.5
2022-09-02T08:13:00.709Z,21.9
2022-09-02T08:18:07.117Z,22.9
2022-09-02T08:23:13.627Z,22.2
2022-09-02T08:28:20.006Z,22.1
2022-09-02T08:33:26.427Z,23.8
2022-09-02T08:38:33.021Z,23.9
2022-09-02T08:43:39.576Z,24.5
2022-09-02T08:48:46.156Z,25.7
2022-09-02T08:53:52.714Z,24.8
2022-09-02T08:58:59.283Z,24.3
2022-09-02T09:04:05.889Z,24.7
2022-09-02T09:09:12.479Z,25
2022-09-02T09:14:19.010Z,22.8
2022-09-02T09:19:25.564Z,23.8
2022-09-02T09:24:32.164Z,26.9
2022-09-02T09:29:38.702Z,25.4
2022-09-02T09:34:45.299Z,25.1
2022-09-02T09:39:51.881Z,24.1
2022-09-02T09:44:58.701Z,23.4
2022-09-02T09:50:05.536Z,25.9
2022-09-02T09:55:12.323Z,26.7
2022-09-02T10:00:19.113Z,26.4
2022-09-02T10:05:25.986Z,26
2022-09-02T10:10:32.767Z,24.2
2022-09-02T10:15:39.586Z,22.8
2022-09-02T10:20:46.417Z,24.8
2022-09-02T10:25:53.205Z,21.8
2022-09-02T10:31:00.046Z,25.1
2022-09-02T10:36:06.911Z,26.3
2022-09-02T10:41:13.717Z,26.3
2022-09-02T10:46:20.517Z,24.7
2022-09-02T10:51:28.005Z,24.3
2022-09-02T10:56:33.972Z,27.1
2022-09-02T11:01:40.492Z,26
2022-09-02T11:06:46.963Z,21.7
2022-09-02T11:11:53.342Z,23.7
2022-09-02T11:16:59.916Z,26.5
2022-09-02T11:22:06.313Z,22.7
2022-09-02T11:27:12.789Z,21.8
2022-09-02T11:32:19.155Z,23.9
2022-09-02T11:37:25.668Z,21.1
2022-09-02T11:42:32.125Z,21.5
2022-09-02T11:47:38.535Z,22.5
2022-09-02T11:52:45.012Z,22.4
2022-09-02T11:57:51.505Z,22.6
2022-09-02T12:02:57.931Z,22.6
2022-09-02T12:08:04.362Z,22.9
2022-09-02T12:13:10.726Z,24
2022-09-02T12:18:17.337Z,22.3
2022-09-02T12:23:23.675Z,22.2
2022-09-02T12:28:30.153Z,22
2022-09-02T12:33:36.603Z,26.5
2022-09-02T12:38:43.055Z,24.3
2022-09-02T12:43:49.434Z,27.2
2022-09-02T12:48:55.868Z,22.8
2022-09-02T12:54:02.296Z,24.6
2022-09-02T12:59:08.757Z,24.5
2022-09-02T13:04:15.325Z,27.1
2022-09-02T13:09:21.925Z,22.8
2022-09-02T13:14:28.501Z,22.1
2022-09-02T13:19:35.092Z,22.4
2022-09-02T13:24:41.647Z,26.3
2022-09-02T13:29:48.276Z,21.8
2022-09-02T13:34:54.843Z,21.4
2022-09-02T13:40:01.412Z,24.2
2022-09-02T13:45:08.006Z,24.2
2022-09-02T13:50:14.622Z,26.5
2022-09-02T13:55:21.240Z,23.4
2022-09-02T14:00:27.854Z,24.8
2022-09-02T14:05:34.505Z,28.5
2022-09-02T14:10:41.324Z,26.7
2022-09-02T14:15:48.146Z,27.9
2022-09-02T14:20:55.020Z,25.8
2022-09-02T14:26:01.768Z,25.4
2022-09-02T14:31:08.606Z,26.3
2022-09-02T14:36:15.430Z,26.7
2022-09-02T14:41:22.252Z,29.1
2022-09-02T14:46:29.083Z,26.4
2022-09-02T14:51:35.905Z,21.3
2022-09-02T14:56:42.738Z,20.8
2022-09-02T15:01:49.538Z,20.5
2022-09-02T15:06:56.328Z,25.3
2022-09-02T15:12:03.132Z,28.2
2022-09-02T15:17:10.590Z,27.3
2022-09-02T15:22:16.607Z,27.4
2022-09-02T15:27:23.044Z,25.8
2022-09-02T15:32:29.499Z,22
2022-09-02T15:37:35.966Z,24.8
2022-09-02T15:42:42.377Z,24.6
2022-09-02T15:47:48.808Z,26.1
2022-09-02T15:52:55.326Z,25.9
2022-09-02T15:58:01.769Z,24
2022-09-02T16:03:08.274Z,20.8
2022-09-02T16:08:14.697Z,20.1
2022-09-02T16:13:21.171Z,20
2022-09-02T16:18:27.630Z,19.9
2022-09-02T16:23:34.079Z,19.6
2022-09-02T16:28:40.508Z,19.4
2022-09-02T16:33:46.977Z,24.1
2022-09-02T16:38:53.420Z,22.8
2022-09-02T16:43:59.865Z,24.4
2022-09-02T16:49:06.297Z,24
2022-09-02T16:59:19.208Z,19.8
2022-09-02T17:04:25.695Z,19.2
2022-09-02T17:09:32.195Z,18.8
2022-09-02T17:14:38.639Z,19.4
2022-09-02T17:19:45.083Z,19.4
2022-09-02T17:24:51.546Z,18.3
2022-09-02T17:29:58.153Z,18.2
2022-09-02T17:35:04.767Z,17.7
2022-09-02T17:40:11.323Z,17.4
2022-09-02T17:45:17.944Z,17.1
2022-09-02T17:50:24.517Z,17
2022-09-02T17:55:31.114Z,16.5
2022-09-02T18:00:37.750Z,16.4
2022-09-02T18:05:44.346Z,16.1
2022-09-02T18:10:50.947Z,15.7
2022-09-02T18:15:57.582Z,15.6
2022-09-02T18:21:04.152Z,15.3
2022-09-02T18:26:10.763Z,15.5
2022-09-02T18:31:17.383Z,15.7
2022-09-02T18:36:24.206Z,15.9
2022-09-02T18:41:32.517Z,15.9
2022-09-02T18:46:37.945Z,15.7
2022-09-02T18:51:44.872Z,15.8
2022-09-02T18:56:51.712Z,15.8
2022-09-02T19:01:58.635Z,15.9
2022-09-02T19:07:05.537Z,16.1
2022-09-02T19:12:12.427Z,16.2
2022-09-02T19:17:19.339Z,16.2
2022-09-02T19:22:26.213Z,16.3
2022-09-02T19:27:33.096Z,16.3
2022-09-02T19:32:40.039Z,16.2
2022-09-02T19:37:46.860Z,16.1
2022-09-02T19:42:54.406Z,16.1
2022-09-02T19:48:00.486Z,16.1
2022-09-02T19:53:06.980Z,15.9
2022-09-02T19:58:13.547Z,15.8
2022-09-02T20:03:20.041Z,15.7
2022-09-02T20:08:26.537Z,15.7
2022-09-02T20:13:33.090Z,15.4
2022-09-02T20:18:39.598Z,15.2
2022-09-02T20:23:46.127Z,15.1
2022-09-02T20:28:52.633Z,14.8
2022-09-02T20:33:59.158Z,14.5
2022-09-02T20:39:05.661Z,14.3
2022-09-02T20:44:12.156Z,14.1
2022-09-02T20:49:18.637Z,14
2022-09-02T20:54:25.130Z,14
2022-09-02T20:59:31.602Z,13.6
2022-09-02T21:04:38.061Z,13.6
2022-09-02T21:09:44.523Z,13.6
2022-09-02T21:14:51.071Z,13.4
2022-09-02T21:19:57.497Z,13.2
2022-09-02T21:25:03.979Z,13.1
2022-09-02T21:30:10.473Z,12.9
2022-09-02T21:35:16.918Z,12.7
2022-09-02T21:40:23.438Z,12.4
2022-09-02T21:45:29.923Z,12.2
2022-09-02T21:50:36.433Z,12.2
2022-09-02T21:55:43.079Z,12.1
2022-09-02T22:00:49.687Z,11.9
2022-09-02T22:05:56.341Z,11.9
2022-09-02T22:11:02.978Z,11.9
2022-09-02T22:16:09.631Z,11.8
2022-09-02T22:21:16.260Z,11.6
2022-09-02T22:26:22.867Z,11.8
2022-09-02T22:31:29.458Z,11.9
2022-09-02T22:36:36.099Z,11.7
2022-09-02T22:41:42.721Z,11.7
2022-09-02T22:46:49.340Z,11.8
2022-09-02T22:51:56.024Z,11.7
2022-09-02T22:57:02.617Z,11.6
2022-09-02T23:02:09.500Z,11.5
2022-09-02T23:07:16.398Z,11.5
2022-09-02T23:12:23.249Z,11.4
2022-09-02T23:17:30.131Z,11.6
2022-09-02T23:22:36.978Z,11.9
2022-09-02T23:27:43.822Z,11.7
2022-09-02T23:32:50.688Z,11.6
2022-09-02T23:37:57.562Z,11.4
2022-09-02T23:43:04.404Z,11.2
2022-09-02T23:48:11.272Z,10.9
2022-09-02T23:53:18.128Z,10.7
2022-09-02T23:58:23.767Z,10.6
